createdAt,value
2017-08-30T00:02:17.003Z,99.90
2017-08-30T00:04:45.118Z,99.90
2017-08-30T00:07:13.227Z,99.90
2017-08-30T00:09:41.351Z,99.90
2017-08-30T00:12:09.489Z,99.90
2017-08-30T00:14:37.654Z,99.90
2017-08-30T00:17:05.837Z,99.90
2017-08-30T00:19:34.548Z,99.90
2017-08-30T00:22:02.666Z,99.90
2017-08-30T00:24:42.720Z,99.90
2017-08-30T00:27:10.847Z,99.90
2017-08-30T00:29:38.961Z,99.90
2017-08-30T00:32:07.132Z,99.90
2017-08-30T00:34:36.702Z,99.90
2017-08-30T00:37:05.283Z,99.90
2017-08-30T00:39:33.419Z,99.90
2017-08-30T00:42:01.573Z,99.90
2017-08-30T00:44:29.715Z,99.90
2017-08-30T00:46:57.861Z,99.90
2017-08-30T00:49:26.566Z,99.90
2017-08-30T00:51:54.727Z,99.90
2017-08-30T00:54:22.825Z,99.90
2017-08-30T00:56:50.983Z,99.90
2017-08-30T00:59:19.153Z,99.90
2017-08-30T01:01:48.091Z,99.90
2017-08-30T01:04:16.849Z,99.90
2017-08-30T01:06:45.014Z,99.90
2017-08-30T01:09:13.192Z,99.90
2017-08-30T01:11:42.211Z,99.90
2017-08-30T01:14:10.410Z,99.90
2017-08-30T01:16:38.568Z,99.90
2017-08-30T01:19:06.685Z,99.90
2017-08-30T01:21:34.818Z,99.90
2017-08-30T01:24:02.946Z,99.90
2017-08-30T01:26:31.065Z,99.90
2017-08-30T01:28:59.195Z,99.90
2017-08-30T01:31:27.334Z,99.90
2017-08-30T01:33:55.445Z,99.90
2017-08-30T01:36:23.600Z,99.90
2017-08-30T01:38:51.716Z,99.90
2017-08-30T01:41:19.849Z,99.90
2017-08-30T01:43:47.961Z,99.90
2017-08-30T01:46:16.092Z,99.90
2017-08-30T01:48:44.226Z,99.90
2017-08-30T01:51:12.371Z,99.90
2017-08-30T01:53:40.486Z,99.90
2017-08-30T01:56:08.635Z,99.90
2017-08-30T01:58:36.759Z,99.90
2017-08-30T02:01:04.881Z,99.90
2017-08-30T02:03:33.112Z,99.90
2017-08-30T02:06:01.249Z,99.90
2017-08-30T02:08:29.380Z,99.90
2017-08-30T02:10:57.524Z,99.90
2017-08-30T02:13:25.656Z,99.90
2017-08-30T02:15:53.828Z,99.90
2017-08-30T02:18:22.140Z,99.90
2017-08-30T02:20:50.273Z,99.90
2017-08-30T02:23:18.423Z,99.90
2017-08-30T02:25:47.332Z,99.90
2017-08-30T02:28:15.793Z,99.90
2017-08-30T02:30:43.918Z,99.90
2017-08-30T02:33:12.056Z,99.90
2017-08-30T02:35:40.234Z,99.90
2017-08-30T02:38:08.387Z,99.90
2017-08-30T02:40:36.537Z,99.90
2017-08-30T02:43:04.727Z,99.90
2017-08-30T02:45:32.909Z,99.90
2017-08-30T02:48:01.013Z,99.90
2017-08-30T02:50:29.110Z,99.90
2017-08-30T02:52:57.262Z,99.90
2017-08-30T02:55:25.353Z,99.90
2017-08-30T02:57:53.483Z,99.90
2017-08-30T03:00:21.654Z,99.90
2017-08-30T03:02:49.981Z,99.90
2017-08-30T03:05:18.191Z,99.90
2017-08-30T03:07:47.213Z,99.90
2017-08-30T03:10:15.445Z,99.90
2017-08-30T03:12:43.585Z,99.90
2017-08-30T03:15:11.705Z,99.90
2017-08-30T03:17:39.822Z,99.90
2017-08-30T03:20:08.324Z,99.90
2017-08-30T03:22:36.484Z,99.90
2017-08-30T03:25:04.604Z,99.90
2017-08-30T03:27:32.739Z,99.90
2017-08-30T03:30:01.672Z,99.90
2017-08-30T03:32:29.865Z,99.90
2017-08-30T03:34:58.144Z,99.90
2017-08-30T03:37:26.271Z,99.90
2017-08-30T03:39:54.429Z,99.90
2017-08-30T03:42:22.850Z,99.90
2017-08-30T03:44:53.099Z,99.90
2017-08-30T03:47:22.334Z,99.90
2017-08-30T03:49:50.481Z,99.90
2017-08-30T03:52:18.611Z,99.90
2017-08-30T03:54:46.758Z,99.90
2017-08-30T03:57:14.904Z,99.90
2017-08-30T03:59:43.030Z,99.90
2017-08-30T04:02:11.368Z,99.90
2017-08-30T04:04:39.494Z,99.90
2017-08-30T04:07:08.591Z,99.90
2017-08-30T04:09:38.221Z,99.90
2017-08-30T04:12:06.474Z,99.90
2017-08-30T04:14:34.597Z,99.90
2017-08-30T04:17:02.752Z,99.90
2017-08-30T04:19:30.882Z,99.90
2017-08-30T04:21:58.989Z,99.90
2017-08-30T04:24:27.132Z,99.90
2017-08-30T04:26:55.238Z,99.90
2017-08-30T04:29:23.392Z,99.90
2017-08-30T04:31:51.557Z,99.90
2017-08-30T04:34:20.449Z,99.90
2017-08-30T04:36:48.881Z,99.90
2017-08-30T04:39:17.016Z,99.90
2017-08-30T04:41:45.135Z,99.90
2017-08-30T04:44:13.924Z,99.90
2017-08-30T04:46:42.166Z,99.90
2017-08-30T04:49:10.575Z,99.90
2017-08-30T04:51:38.776Z,99.90
2017-08-30T04:54:07.294Z,99.90
2017-08-30T04:56:36.464Z,99.90
2017-08-30T04:59:04.635Z,99.90
2017-08-30T05:01:33.207Z,99.90
2017-08-30T05:04:01.477Z,99.90
2017-08-30T05:06:30.678Z,99.90
2017-08-30T05:08:58.845Z,99.90
2017-08-30T05:11:26.972Z,99.90
2017-08-30T05:13:56.331Z,99.90
2017-08-30T05:16:24.776Z,99.90
2017-08-30T05:18:52.892Z,99.90
2017-08-30T05:21:21.050Z,99.90
2017-08-30T05:23:49.184Z,99.90
2017-08-30T05:26:17.286Z,99.90
2017-08-30T05:28:45.377Z,99.90
2017-08-30T05:31:13.559Z,99.90
2017-08-30T05:33:41.664Z,99.90
2017-08-30T05:36:09.816Z,99.90
2017-08-30T05:38:37.993Z,99.90
2017-08-30T05:41:06.157Z,99.90
2017-08-30T05:43:34.273Z,99.90
2017-08-30T05:46:02.440Z,99.90
2017-08-30T05:48:30.565Z,99.90
2017-08-30T05:50:58.688Z,99.90
2017-08-30T05:53:26.854Z,99.90
2017-08-30T05:55:55.041Z,99.90
2017-08-30T05:58:23.144Z,99.90
2017-08-30T06:00:51.288Z,99.90
2017-08-30T06:03:19.459Z,99.90
2017-08-30T06:05:47.609Z,99.90
2017-08-30T06:08:15.729Z,99.90
2017-08-30T06:10:43.830Z,99.90
2017-08-30T06:13:11.989Z,99.90
2017-08-30T06:15:40.117Z,99.90
2017-08-30T06:18:08.266Z,99.90
2017-08-30T06:20:37.170Z,99.90
2017-08-30T06:23:05.391Z,99.90
2017-08-30T06:25:33.556Z,99.90
2017-08-30T06:28:01.765Z,99.90
2017-08-30T06:30:29.937Z,99.90
2017-08-30T06:32:58.061Z,99.90
2017-08-30T06:35:26.240Z,99.90
2017-08-30T06:37:55.229Z,99.90
2017-08-30T06:40:23.422Z,99.90
2017-08-30T06:42:51.577Z,99.90
2017-08-30T06:45:19.710Z,99.90
2017-08-30T06:47:47.855Z,99.90
2017-08-30T06:50:15.986Z,99.90
2017-08-30T06:52:44.878Z,99.90
2017-08-30T06:55:13.577Z,99.90
2017-08-30T06:57:42.334Z,99.90
2017-08-30T07:00:12.673Z,99.90
2017-08-30T07:02:40.845Z,99.90
2017-08-30T07:05:09.122Z,99.90
2017-08-30T07:07:37.267Z,99.90
2017-08-30T07:10:05.411Z,99.90
2017-08-30T07:12:33.594Z,99.90
2017-08-30T07:15:01.755Z,99.90
2017-08-30T07:17:29.916Z,99.90
2017-08-30T07:19:58.019Z,99.90
2017-08-30T07:22:26.199Z,99.90
2017-08-30T07:24:54.362Z,99.90
2017-08-30T07:27:22.473Z,99.90
2017-08-30T07:29:50.593Z,99.90
2017-08-30T07:32:18.719Z,99.90
2017-08-30T07:34:46.853Z,99.90
2017-08-30T07:37:14.928Z,99.90
2017-08-30T07:39:43.081Z,99.90
2017-08-30T07:42:11.195Z,99.90
2017-08-30T07:44:39.339Z,99.90
2017-08-30T07:47:07.510Z,99.90
2017-08-30T07:49:35.687Z,99.90
2017-08-30T07:52:03.968Z,99.90
2017-08-30T07:54:32.807Z,99.90
2017-08-30T07:57:00.978Z,99.90
2017-08-30T07:59:29.145Z,99.90
2017-08-30T08:01:57.266Z,99.90
2017-08-30T08:04:25.419Z,99.90
2017-08-30T08:06:53.547Z,99.90
2017-08-30T08:09:21.693Z,99.90
2017-08-30T08:11:49.838Z,99.90
2017-08-30T08:14:17.937Z,99.90
2017-08-30T08:16:46.069Z,99.90
2017-08-30T08:19:14.199Z,99.90
2017-08-30T08:21:44.247Z,99.90
2017-08-30T08:24:13.493Z,99.90
2017-08-30T08:26:42.068Z,99.90
2017-08-30T08:29:10.966Z,99.90
2017-08-30T08:31:39.084Z,99.50
2017-08-30T08:34:08.030Z,99.10
2017-08-30T08:36:36.146Z,99.10
2017-08-30T08:39:04.294Z,98.90
2017-08-30T08:41:32.431Z,98.60
2017-08-30T08:44:00.557Z,98.30
2017-08-30T08:46:28.637Z,98.00
2017-08-30T08:48:56.742Z,97.70
2017-08-30T08:51:24.881Z,97.20
2017-08-30T08:53:53.008Z,96.70
2017-08-30T08:56:21.175Z,96.30
2017-08-30T08:58:49.306Z,96.60
2017-08-30T09:01:17.552Z,95.90
2017-08-30T09:03:45.792Z,95.80
2017-08-30T09:06:14.047Z,95.10
2017-08-30T09:08:42.207Z,94.20
2017-08-30T09:11:11.212Z,94.20
2017-08-30T09:13:39.959Z,92.90
2017-08-30T09:16:08.087Z,93.40
2017-08-30T09:18:37.314Z,93.60
2017-08-30T09:21:06.579Z,93.00
2017-08-30T09:23:35.320Z,92.70
2017-08-30T09:26:04.640Z,92.50
2017-08-30T09:28:32.904Z,91.60
2017-08-30T09:31:01.036Z,90.80
2017-08-30T09:33:29.262Z,90.90
2017-08-30T09:35:58.187Z,91.60
2017-08-30T09:38:26.322Z,91.50
2017-08-30T09:40:54.891Z,91.80
2017-08-30T09:43:23.055Z,92.00
2017-08-30T09:45:51.205Z,91.60
2017-08-30T09:48:19.363Z,91.90
2017-08-30T09:50:48.277Z,91.00
2017-08-30T09:53:16.393Z,91.00
2017-08-30T09:55:44.509Z,91.10
2017-08-30T09:58:12.665Z,90.50
2017-08-30T10:00:40.823Z,90.00
2017-08-30T10:03:08.951Z,90.00
2017-08-30T10:05:37.137Z,90.00
2017-08-30T10:08:05.262Z,90.00
2017-08-30T10:10:33.381Z,89.40
2017-08-30T10:13:02.128Z,87.30
2017-08-30T10:15:30.886Z,86.20
2017-08-30T10:17:59.028Z,85.00
2017-08-30T10:20:27.209Z,84.90
2017-08-30T10:22:55.379Z,85.70
2017-08-30T10:25:23.560Z,84.90
2017-08-30T10:27:51.701Z,85.90
2017-08-30T10:30:19.857Z,86.80
2017-08-30T10:32:48.027Z,84.00
2017-08-30T10:35:16.114Z,83.20
2017-08-30T10:37:44.239Z,83.00
2017-08-30T10:40:12.405Z,83.30
2017-08-30T10:42:40.617Z,83.00
2017-08-30T10:45:08.810Z,83.50
2017-08-30T10:47:36.979Z,82.20
2017-08-30T10:50:05.136Z,81.60
2017-08-30T10:52:33.317Z,80.30
2017-08-30T10:55:01.839Z,78.40
2017-08-30T10:57:30.036Z,78.10
2017-08-30T10:59:58.193Z,79.10
2017-08-30T11:02:26.334Z,77.90
2017-08-30T11:04:54.513Z,75.00
2017-08-30T11:07:22.639Z,74.20
2017-08-30T11:09:50.748Z,74.00
2017-08-30T11:12:18.864Z,75.70
2017-08-30T11:14:46.990Z,74.70
2017-08-30T11:17:15.122Z,73.80
2017-08-30T11:19:43.335Z,71.30
2017-08-30T11:22:11.473Z,73.20
2017-08-30T11:24:39.755Z,72.90
2017-08-30T11:27:07.888Z,72.20
2017-08-30T11:29:36.001Z,73.60
2017-08-30T11:32:04.159Z,75.20
2017-08-30T11:34:32.957Z,76.60
2017-08-30T11:37:02.501Z,77.00
2017-08-30T11:39:30.772Z,76.80
2017-08-30T11:41:58.856Z,78.10
2017-08-30T11:44:26.962Z,78.80
2017-08-30T11:46:55.084Z,79.50
2017-08-30T11:49:23.216Z,77.40
2017-08-30T11:51:51.334Z,76.70
2017-08-30T11:54:19.517Z,74.30
2017-08-30T11:56:47.685Z,73.40
2017-08-30T11:59:16.663Z,74.80
2017-08-30T12:01:45.360Z,73.80
2017-08-30T12:04:13.635Z,73.20
2017-08-30T12:06:41.776Z,72.90
2017-08-30T12:09:10.488Z,71.00
2017-08-30T12:11:38.821Z,70.70
2017-08-30T12:14:07.812Z,68.80
2017-08-30T12:16:35.948Z,69.40
2017-08-30T12:19:04.070Z,69.10
2017-08-30T12:21:32.197Z,69.70
2017-08-30T12:24:00.344Z,70.30
2017-08-30T12:26:29.442Z,70.50
2017-08-30T12:28:58.909Z,69.80
2017-08-30T12:31:27.044Z,70.20
2017-08-30T12:33:55.186Z,70.10
2017-08-30T12:36:23.282Z,70.50
2017-08-30T12:38:57.209Z,69.90
2017-08-30T12:41:25.346Z,69.00
2017-08-30T12:43:53.514Z,69.90
2017-08-30T12:46:21.631Z,69.00
2017-08-30T12:48:49.776Z,69.70
2017-08-30T12:51:17.954Z,70.00
2017-08-30T12:53:46.070Z,70.90
2017-08-30T12:56:14.214Z,70.30
2017-08-30T12:58:42.362Z,70.20
2017-08-30T13:01:10.479Z,69.00
2017-08-30T13:03:38.606Z,68.60
2017-08-30T13:06:06.875Z,68.50
2017-08-30T13:08:35.019Z,68.50
2017-08-30T13:11:03.215Z,68.50
2017-08-30T13:13:31.367Z,68.70
2017-08-30T13:15:59.484Z,68.30
2017-08-30T13:18:27.596Z,69.10
2017-08-30T13:20:55.770Z,69.30
2017-08-30T13:23:23.884Z,69.00
2017-08-30T13:25:51.997Z,69.40
2017-08-30T13:28:20.122Z,70.00
2017-08-30T13:30:48.261Z,69.30
2017-08-30T13:33:16.574Z,70.10
2017-08-30T13:35:44.725Z,69.70
2017-08-30T13:38:12.843Z,70.10
2017-08-30T13:40:40.988Z,69.90
2017-08-30T13:43:12.651Z,70.40
2017-08-30T13:45:41.393Z,72.30
2017-08-30T13:48:09.531Z,74.00
2017-08-30T13:50:37.716Z,74.70
2017-08-30T13:53:05.923Z,76.10
2017-08-30T13:55:34.072Z,77.30
2017-08-30T13:58:02.300Z,78.40
2017-08-30T14:00:30.419Z,78.60
2017-08-30T14:02:58.933Z,79.00
2017-08-30T14:05:27.266Z,79.50
2017-08-30T14:07:55.478Z,80.10
2017-08-30T14:10:24.158Z,80.80
2017-08-30T14:12:52.343Z,81.40
2017-08-30T14:15:20.513Z,81.10
2017-08-30T14:17:48.650Z,81.90
2017-08-30T14:20:16.861Z,80.40
2017-08-30T14:22:45.036Z,80.30
2017-08-30T14:25:13.159Z,80.50
2017-08-30T14:27:41.315Z,81.40
2017-08-30T14:30:09.549Z,81.00
2017-08-30T14:32:37.707Z,81.10
2017-08-30T14:35:06.619Z,81.30
2017-08-30T14:37:34.753Z,81.90
2017-08-30T14:40:02.867Z,82.40
2017-08-30T14:42:31.034Z,82.60
2017-08-30T14:44:59.193Z,82.30
2017-08-30T14:47:27.357Z,82.10
2017-08-30T14:49:55.476Z,82.40
2017-08-30T14:52:23.613Z,81.50
2017-08-30T14:54:51.796Z,81.00
2017-08-30T14:57:19.924Z,81.20
2017-08-30T14:59:48.028Z,81.10
2017-08-30T15:02:16.177Z,81.10
2017-08-30T15:04:44.312Z,81.30
2017-08-30T15:07:12.448Z,81.00
2017-08-30T15:09:40.547Z,81.20
2017-08-30T15:12:08.700Z,82.30
2017-08-30T15:14:36.862Z,81.90
2017-08-30T15:17:06.058Z,82.30
2017-08-30T15:19:34.223Z,83.00
2017-08-30T15:22:02.383Z,83.40
2017-08-30T15:24:30.502Z,84.20
2017-08-30T15:26:58.702Z,84.00
2017-08-30T15:29:26.831Z,84.80
2017-08-30T15:31:54.988Z,85.40
2017-08-30T15:34:23.258Z,85.90
2017-08-30T15:36:51.396Z,86.70
2017-08-30T15:39:19.522Z,87.10
2017-08-30T15:41:48.003Z,87.30
2017-08-30T15:44:16.130Z,87.60
2017-08-30T15:46:44.317Z,88.10
2017-08-30T15:49:12.462Z,88.10
2017-08-30T15:51:40.669Z,88.50
2017-08-30T15:54:08.826Z,87.80
2017-08-30T15:56:36.966Z,88.40
2017-08-30T15:59:05.085Z,88.30
2017-08-30T16:01:33.255Z,88.50
2017-08-30T16:04:01.420Z,88.80
2017-08-30T16:06:29.583Z,89.20
2017-08-30T16:08:57.745Z,89.70
2017-08-30T16:11:25.899Z,89.80
2017-08-30T16:13:54.026Z,90.00
2017-08-30T16:16:22.172Z,90.00
2017-08-30T16:18:50.930Z,90.10
2017-08-30T16:21:19.104Z,90.20
2017-08-30T16:23:47.261Z,90.50
2017-08-30T16:26:15.429Z,90.40
2017-08-30T16:28:43.594Z,90.40
2017-08-30T16:31:11.760Z,90.70
2017-08-30T16:33:39.930Z,90.40
2017-08-30T16:36:08.073Z,90.30
2017-08-30T16:38:36.226Z,90.40
2017-08-30T16:41:04.400Z,90.40
2017-08-30T16:43:32.518Z,90.40
2017-08-30T16:46:00.638Z,90.60
2017-08-30T16:48:28.735Z,90.50
2017-08-30T16:50:56.878Z,90.60
2017-08-30T16:53:25.015Z,90.70
2017-08-30T16:55:53.133Z,90.70
2017-08-30T16:58:21.254Z,90.80
2017-08-30T17:00:49.469Z,91.00
2017-08-30T17:03:17.610Z,91.10
2017-08-30T17:05:45.749Z,91.30
2017-08-30T17:08:13.920Z,91.60
2017-08-30T17:10:42.009Z,91.90
2017-08-30T17:13:10.164Z,92.40
2017-08-30T17:15:38.577Z,92.80
2017-08-30T17:18:07.332Z,93.00
2017-08-30T17:20:35.475Z,93.20
2017-08-30T17:23:03.577Z,93.60
2017-08-30T17:25:31.679Z,93.50
2017-08-30T17:27:59.793Z,93.00
2017-08-30T17:30:27.987Z,93.10
2017-08-30T17:32:56.129Z,93.00
2017-08-30T17:35:24.289Z,93.10
2017-08-30T17:37:52.600Z,93.30
2017-08-30T17:40:20.807Z,93.20
2017-08-30T17:42:49.038Z,92.90
2017-08-30T17:45:17.155Z,93.00
2017-08-30T17:47:45.287Z,93.20
2017-08-30T17:50:13.467Z,93.30
2017-08-30T17:52:41.555Z,93.40
2017-08-30T17:55:09.708Z,93.60
2017-08-30T17:57:37.836Z,93.90
2017-08-30T18:00:05.971Z,94.10
2017-08-30T18:02:34.498Z,94.40
2017-08-30T18:05:02.628Z,94.50
2017-08-30T18:07:30.805Z,94.70
2017-08-30T18:09:58.973Z,95.00
2017-08-30T18:12:27.105Z,95.10
2017-08-30T18:14:55.272Z,95.40
2017-08-30T18:17:23.673Z,95.50
2017-08-30T18:19:51.821Z,95.50
2017-08-30T18:22:19.931Z,95.70
2017-08-30T18:24:48.119Z,95.90
2017-08-30T18:27:16.242Z,95.90
2017-08-30T18:29:45.383Z,96.50
2017-08-30T18:32:13.575Z,96.10
2017-08-30T18:34:41.701Z,96.30
2017-08-30T18:37:09.849Z,96.50
2017-08-30T18:39:37.993Z,96.80
2017-08-30T18:42:06.183Z,97.00
2017-08-30T18:44:34.333Z,97.00
2017-08-30T18:47:02.476Z,97.10
2017-08-30T18:49:30.678Z,97.20
2017-08-30T18:51:58.822Z,97.30
2017-08-30T18:54:27.229Z,97.30
2017-08-30T18:56:56.665Z,97.30
2017-08-30T18:59:24.787Z,97.30
2017-08-30T19:01:52.958Z,96.90
2017-08-30T19:04:21.185Z,96.90
2017-08-30T19:06:49.467Z,97.00
2017-08-30T19:09:17.605Z,97.00
2017-08-30T19:11:45.729Z,96.80
2017-08-30T19:14:13.852Z,96.80
2017-08-30T19:16:41.943Z,96.70
2017-08-30T19:19:10.050Z,96.60
2017-08-30T19:21:38.182Z,96.50
2017-08-30T19:24:06.684Z,96.50
2017-08-30T19:26:34.985Z,96.30
2017-08-30T19:29:03.161Z,96.50
2017-08-30T19:31:31.343Z,96.50
2017-08-30T19:33:59.472Z,96.40
2017-08-30T19:36:27.615Z,96.50
2017-08-30T19:38:55.956Z,96.50
2017-08-30T19:41:24.086Z,96.50
2017-08-30T19:43:52.234Z,96.60
2017-08-30T19:46:20.453Z,96.50
2017-08-30T19:48:48.628Z,96.40
2017-08-30T19:51:16.757Z,96.70
2017-08-30T19:53:44.870Z,96.50
2017-08-30T19:56:13.024Z,96.50
2017-08-30T19:58:41.160Z,96.50
2017-08-30T20:01:09.322Z,96.40
2017-08-30T20:03:37.647Z,96.60
2017-08-30T20:06:05.981Z,96.30
2017-08-30T20:08:34.095Z,96.50
2017-08-30T20:11:02.361Z,96.40
2017-08-30T20:13:30.506Z,96.50
2017-08-30T20:15:58.628Z,96.60
2017-08-30T20:18:26.798Z,96.60
2017-08-30T20:20:54.911Z,96.70
2017-08-30T20:23:23.081Z,96.70
2017-08-30T20:25:51.240Z,96.80
2017-08-30T20:28:19.362Z,97.10
2017-08-30T20:30:47.540Z,96.90
2017-08-30T20:33:15.725Z,97.00
2017-08-30T20:35:43.986Z,97.10
2017-08-30T20:38:12.123Z,97.10
2017-08-30T20:40:40.239Z,97.20
2017-08-30T20:43:08.446Z,97.20
2017-08-30T20:45:36.606Z,97.70
2017-08-30T20:48:04.814Z,98.00
2017-08-30T20:50:32.958Z,98.60
2017-08-30T20:53:01.126Z,98.20
2017-08-30T20:55:29.253Z,98.30
2017-08-30T20:57:57.649Z,99.00
2017-08-30T21:00:26.431Z,99.00
2017-08-30T21:02:55.401Z,99.90
2017-08-30T21:05:23.575Z,99.80
2017-08-30T21:07:51.847Z,99.80
2017-08-30T21:10:20.169Z,99.90
2017-08-30T21:12:48.326Z,99.90
2017-08-30T21:15:16.449Z,99.90
2017-08-30T21:17:45.018Z,99.90
2017-08-30T21:20:13.335Z,99.90
2017-08-30T21:22:41.598Z,99.90
2017-08-30T21:25:11.369Z,99.90
2017-08-30T21:27:39.501Z,99.90
2017-08-30T21:30:08.253Z,99.90
2017-08-30T21:32:36.395Z,99.90
2017-08-30T21:35:04.527Z,99.90
2017-08-30T21:37:32.661Z,99.90
2017-08-30T21:40:00.801Z,99.90
2017-08-30T21:42:29.166Z,99.90
2017-08-30T21:44:58.132Z,99.90
2017-08-30T21:47:26.272Z,99.90
2017-08-30T21:49:54.390Z,99.90
2017-08-30T21:52:22.585Z,99.90
2017-08-30T21:54:50.719Z,99.90
2017-08-30T21:57:18.843Z,99.90
2017-08-30T21:59:46.982Z,99.90
2017-08-30T22:02:15.142Z,99.90
2017-08-30T22:04:43.350Z,99.90
2017-08-30T22:07:12.134Z,99.90
2017-08-30T22:09:40.583Z,99.90
2017-08-30T22:12:09.010Z,99.90
2017-08-30T22:14:37.151Z,99.90
2017-08-30T22:17:05.725Z,99.90
2017-08-30T22:19:34.919Z,99.90
2017-08-30T22:22:03.040Z,99.90
2017-08-30T22:24:31.158Z,99.90
2017-08-30T22:27:00.166Z,99.90
2017-08-30T22:29:28.383Z,99.90
2017-08-30T22:31:56.761Z,99.90
2017-08-30T22:34:24.898Z,99.90
2017-08-30T22:36:53.020Z,99.90
2017-08-30T22:39:21.601Z,99.90
2017-08-30T22:41:49.767Z,99.90
2017-08-30T22:44:17.894Z,99.90
2017-08-30T22:46:46.397Z,99.90
2017-08-30T22:49:15.101Z,99.90
2017-08-30T22:51:43.224Z,99.90
2017-08-30T22:54:11.431Z,99.90
2017-08-30T22:56:40.318Z,99.90
2017-08-30T22:59:09.108Z,99.90
2017-08-30T23:01:37.367Z,99.90
2017-08-30T23:04:07.680Z,99.90
2017-08-30T23:06:35.800Z,99.90
2017-08-30T23:09:03.978Z,99.90
2017-08-30T23:11:32.119Z,99.90
2017-08-30T23:14:00.272Z,99.90
2017-08-30T23:16:28.397Z,99.90
2017-08-30T23:18:56.546Z,99.90
2017-08-30T23:21:24.709Z,99.90
2017-08-30T23:23:52.814Z,99.90
2017-08-30T23:26:21.049Z,99.90
2017-08-30T23:28:50.079Z,99.90
2017-08-30T23:31:18.209Z,99.90
2017-08-30T23:33:46.617Z,99.90
2017-08-30T23:36:14.757Z,99.90
2017-08-30T23:38:42.894Z,99.90
2017-08-30T23:41:11.678Z,99.90
2017-08-30T23:43:39.874Z,99.90
2017-08-30T23:46:07.997Z,99.90
2017-08-30T23:48:36.167Z,99.90
2017-08-30T23:51:04.344Z,99.90
2017-08-30T23:53:32.473Z,99.90
2017-08-30T23:56:00.649Z,99.90
2017-08-30T23:58:28.805Z,99.90
